This is the latest recevied weather packets stored in our database for station/object Kirchdorf. If no packets are shown the sender has not sent any weather packets the latest 10 day(s).
| Time | Temp. | Humidity | Pressure | Rain* | Wind** | Luminosity | Snow |
|---|---|---|---|---|---|---|---|
| 1788049931 | 16.11° C | 85% | 1016.7 hPa | 0 mm | - | - | - |
| 1788048131 | 15.56° C | 85% | 1016.8 hPa | 0 mm | - | - | - |
| 1788046331 | 15.56° C | 85% | 1016.7 hPa | 0 mm | - | - | - |
| 1788044531 | 15.56° C | 86% | 1016.5 hPa | 0 mm | - | - | - |
| 1788042731 | 15.56° C | 86% | 1016.6 hPa | 0 mm | - | - | - |
| 1788039131 | 16.11° C | 84% | 1016.7 hPa | 0.25 mm | - | - | - |
| 1788037331 | 16.11° C | 83% | 1016.6 hPa | 0.25 mm | - | - | - |
| 1788035531 | 16.67° C | 81% | 1016.4 hPa | 0.25 mm | - | - | - |
| 1788033731 | 16.67° C | 80% | 1016.3 hPa | 0.25 mm | - | - | - |
| 1788031930 | 17.22° C | 77% | 1016.5 hPa | 0.25 mm | - | - | - |
| 1788030132 | 18.89° C | 72% | 1016.2 hPa | 0.25 mm | - | - | - |
| 1788028331 | 20° C | 66% | 1015.9 hPa | 0.25 mm | - | - | - |
| 1788026531 | 21.11° C | 61% | 1015.8 hPa | 0.25 mm | - | - | - |
| 1788024730 | 21.67° C | 59% | 1015.7 hPa | 0.25 mm | - | - | - |
| 1788022930 | 21.67° C | 58% | 1015.7 hPa | 0.25 mm | - | - | - |
| 1788021130 | 22.22° C | 58% | 1015.6 hPa | 0.25 mm | - | - | - |
| 1788019330 | 23.33° C | 54% | 1015.8 hPa | 0.25 mm | - | - | - |
| 1788017530 | 22.78° C | 55% | 1016.1 hPa | 0.25 mm | - | - | - |
| 1788015731 | 23.33° C | 58% | 1016.1 hPa | 0.25 mm | - | - | - |
| 1788013932 | 23.89° C | 56% | 1016.1 hPa | 0.25 mm | - | - | - |
| 1788012130 | 22.78° C | 56% | 1016.4 hPa | 0.25 mm | - | - | - |
| 1788010330 | 23.33° C | 55% | 1016.4 hPa | 0.25 mm | - | - | - |
| 1788008530 | 23.89° C | 54% | 1016.4 hPa | 0.25 mm | - | - | - |
| 1788006730 | 22.22° C | 56% | 1016.8 hPa | 0.25 mm | - | - | - |
| 1788004930 | 22.78° C | 60% | 1017.1 hPa | 0.25 mm | - | - | - |
* Rain since midnight (hover to see other rain measurements)
** Current wind speed in m/s (hover to see current wind gust speed)